sensor_id;sensor_type;location;lat;lon;timestamp;pressure;altitude;pressure_sealevel;temperature;humidity
72157;BME280;60035;52.122;5.406;2024-03-22T00:00:00;102225.47;;;10.89;100.00
72157;BME280;60035;52.122;5.406;2024-03-22T00:02:41;102230.59;;;10.90;100.00
72157;BME280;60035;52.122;5.406;2024-03-22T00:05:08;102234.84;;;10.93;100.00
72157;BME280;60035;52.122;5.406;2024-03-22T00:07:35;102222.03;;;10.94;100.00
72157;BME280;60035;52.122;5.406;2024-03-22T00:10:06;102215.16;;;10.95;100.00
72157;BME280;60035;52.122;5.406;2024-03-22T00:12:34;102212.59;;;10.95;100.00
72157;BME280;60035;52.122;5.406;2024-03-22T00:15:04;102210.91;;;10.94;100.00
72157;BME280;60035;52.122;5.406;2024-03-22T00:17:36;102204.09;;;10.94;100.00
72157;BME280;60035;52.122;5.406;2024-03-22T00:20:07;102194.69;;;10.93;100.00
72157;BME280;60035;52.122;5.406;2024-03-22T00:22:35;102185.28;;;10.92;100.00
72157;BME280;60035;52.122;5.406;2024-03-22T00:25:02;102178.47;;;10.93;100.00
72157;BME280;60035;52.122;5.406;2024-03-22T00:27:32;102178.47;;;10.91;100.00
72157;BME280;60035;52.122;5.406;2024-03-22T00:30:03;102177.63;;;10.91;100.00
72157;BME280;60035;52.122;5.406;2024-03-22T00:32:31;102175.09;;;10.89;100.00
72157;BME280;60035;52.122;5.406;2024-03-22T00:35:01;102169.09;;;10.89;100.00
72157;BME280;60035;52.122;5.406;2024-03-22T00:37:31;102166.53;;;10.89;100.00
72157;BME280;60035;52.122;5.406;2024-03-22T00:40:01;102160.59;;;10.87;100.00
72157;BME280;60035;52.122;5.406;2024-03-22T00:42:28;102160.59;;;10.87;100.00
72157;BME280;60035;52.122;5.406;2024-03-22T00:44:59;102144.38;;;10.83;100.00
72157;BME280;60035;52.122;5.406;2024-03-22T00:47:26;102145.25;;;10.83;100.00
72157;BME280;60035;52.122;5.406;2024-03-22T00:49:59;102133.28;;;10.82;100.00
72157;BME280;60035;52.122;5.406;2024-03-22T00:52:34;102130.75;;;10.79;100.00
72157;BME280;60035;52.122;5.406;2024-03-22T00:55:04;102125.63;;;10.78;100.00
72157;BME280;60035;52.122;5.406;2024-03-22T00:57:35;102131.63;;;10.78;100.00
72157;BME280;60035;52.122;5.406;2024-03-22T01:00:05;102123.06;;;10.79;100.00
72157;BME280;60035;52.122;5.406;2024-03-22T01:02:33;102117.94;;;10.79;100.00
72157;BME280;60035;52.122;5.406;2024-03-22T01:05:00;102121.38;;;10.80;100.00
72157;BME280;60035;52.122;5.406;2024-03-22T01:07:30;102129.88;;;10.80;100.00
72157;BME280;60035;52.122;5.406;2024-03-22T01:09:59;102127.31;;;10.80;100.00
72157;BME280;60035;52.122;5.406;2024-03-22T01:12:27;102123.06;;;10.79;100.00
72157;BME280;60035;52.122;5.406;2024-03-22T01:14:54;102117.06;;;10.80;100.00
72157;BME280;60035;52.122;5.406;2024-03-22T01:17:22;102117.94;;;10.81;100.00
72157;BME280;60035;52.122;5.406;2024-03-22T01:19:52;102114.50;;;10.80;100.00
72157;BME280;60035;52.122;5.406;2024-03-22T01:22:19;102117.94;;;10.81;100.00
72157;BME280;60035;52.122;5.406;2024-03-22T01:24:47;102118.81;;;10.80;100.00
72157;BME280;60035;52.122;5.406;2024-03-22T01:27:14;102120.50;;;10.79;100.00
72157;BME280;60035;52.122;5.406;2024-03-22T01:29:42;102115.38;;;10.79;100.00
72157;BME280;60035;52.122;5.406;2024-03-22T01:32:11;102108.56;;;10.78;100.00
72157;BME280;60035;52.122;5.406;2024-03-22T01:34:44;102112.00;;;10.77;100.00
72157;BME280;60035;52.122;5.406;2024-03-22T01:37:12;102100.88;;;10.77;100.00
72157;BME280;60035;52.122;5.406;2024-03-22T01:39:42;102106.00;;;10.77;100.00
72157;BME280;60035;52.122;5.406;2024-03-22T01:42:09;102106.88;;;10.77;100.00
72157;BME280;60035;52.122;5.406;2024-03-22T01:44:37;102101.72;;;10.79;100.00
72157;BME280;60035;52.122;5.406;2024-03-22T01:47:08;102088.91;;;10.79;100.00
72157;BME280;60035;52.122;5.406;2024-03-22T01:49:35;102094.88;;;10.81;100.00
72157;BME280;60035;52.122;5.406;2024-03-22T01:52:05;102088.06;;;10.80;100.00
72157;BME280;60035;52.122;5.406;2024-03-22T01:54:33;102089.75;;;10.79;100.00
72157;BME280;60035;52.122;5.406;2024-03-22T01:57:01;102089.75;;;10.81;100.00
72157;BME280;60035;52.122;5.406;2024-03-22T01:59:32;102082.91;;;10.81;100.00
72157;BME280;60035;52.122;5.406;2024-03-22T02:02:00;102090.59;;;10.81;100.00
72157;BME280;60035;52.122;5.406;2024-03-22T02:04:31;102082.03;;;10.84;100.00
72157;BME280;60035;52.122;5.406;2024-03-22T02:06:58;102085.44;;;10.83;100.00
72157;BME280;60035;52.122;5.406;2024-03-22T02:09:30;102081.19;;;10.82;100.00
72157;BME280;60035;52.122;5.406;2024-03-22T02:12:01;102084.59;;;10.84;100.00
72157;BME280;60035;52.122;5.406;2024-03-22T02:14:29;102081.16;;;10.87;100.00
72157;BME280;60035;52.122;5.406;2024-03-22T02:16:57;102081.16;;;10.87;100.00
72157;BME280;60035;52.122;5.406;2024-03-22T02:19:27;102076.00;;;10.88;100.00
72157;BME280;60035;52.122;5.406;2024-03-22T02:21:54;102071.72;;;10.89;100.00
72157;BME280;60035;52.122;5.406;2024-03-22T02:24:24;102063.16;;;10.91;100.00
72157;BME280;60035;52.122;5.406;2024-03-22T02:26:57;102059.72;;;10.92;100.00
72157;BME280;60035;52.122;5.406;2024-03-22T02:29:26;102069.97;;;10.92;100.00
72157;BME280;60035;52.122;5.406;2024-03-22T02:31:54;102065.72;;;10.93;100.00
72157;BME280;60035;52.122;5.406;2024-03-22T02:34:24;102060.59;;;10.93;100.00
72157;BME280;60035;52.122;5.406;2024-03-22T02:36:54;102052.88;;;10.94;100.00
72157;BME280;60035;52.122;5.406;2024-03-22T02:39:21;102054.56;;;10.94;100.00
72157;BME280;60035;52.122;5.406;2024-03-22T02:41:51;102059.72;;;10.95;100.00
72157;BME280;60035;52.122;5.406;2024-03-22T02:44:19;102053.75;;;10.93;100.00
72157;BME280;60035;52.122;5.406;2024-03-22T02:46:48;102044.34;;;10.92;100.00
72157;BME280;60035;52.122;5.406;2024-03-22T02:49:20;102046.91;;;10.92;100.00
72157;BME280;60035;52.122;5.406;2024-03-22T02:51:51;102035.81;;;10.92;100.00
72157;BME280;60035;52.122;5.406;2024-03-22T02:54:21;102028.19;;;10.86;100.00
72157;BME280;60035;52.122;5.406;2024-03-22T02:56:48;102019.69;;;10.82;100.00
72157;BME280;60035;52.122;5.406;2024-03-22T02:59:18;102022.28;;;10.80;100.00
72157;BME280;60035;52.122;5.406;2024-03-22T03:01:45;102012.91;;;10.78;100.00
72157;BME280;60035;52.122;5.406;2024-03-22T03:04:13;102001.81;;;10.77;100.00
72157;BME280;60035;52.122;5.406;2024-03-22T03:06:40;101999.25;;;10.79;100.00
72157;BME280;60035;52.122;5.406;2024-03-22T03:09:10;101986.44;;;10.77;100.00
72157;BME280;60035;52.122;5.406;2024-03-22T03:11:40;101983.03;;;10.77;100.00
72157;BME280;60035;52.122;5.406;2024-03-22T03:14:08;101978.75;;;10.77;100.00
72157;BME280;60035;52.122;5.406;2024-03-22T03:16:37;101974.56;;;10.72;100.00
72157;BME280;60035;52.122;5.406;2024-03-22T03:19:07;101973.75;;;10.68;100.00
72157;BME280;60035;52.122;5.406;2024-03-22T03:21:37;101978.91;;;10.65;100.00
72157;BME280;60035;52.122;5.406;2024-03-22T03:24:14;101980.69;;;10.58;100.00
72157;BME280;60035;52.122;5.406;2024-03-22T03:26:41;101968.78;;;10.53;100.00
72157;BME280;60035;52.122;5.406;2024-03-22T03:29:14;101969.69;;;10.48;100.00
72157;BME280;60035;52.122;5.406;2024-03-22T03:31:44;101962.06;;;10.45;100.00
72157;BME280;60035;52.122;5.406;2024-03-22T03:34:17;101971.44;;;10.45;100.00
72157;BME280;60035;52.122;5.406;2024-03-22T03:36:48;101955.22;;;10.44;100.00
72157;BME280;60035;52.122;5.406;2024-03-22T03:39:18;101956.97;;;10.44;100.00
72157;BME280;60035;52.122;5.406;2024-03-22T03:41:51;101942.47;;;10.43;100.00
72157;BME280;60035;52.122;5.406;2024-03-22T03:44:24;101943.34;;;10.37;100.00
72157;BME280;60035;52.122;5.406;2024-03-22T03:46:51;101936.53;;;10.34;100.00
72157;BME280;60035;52.122;5.406;2024-03-22T03:49:24;101942.53;;;10.33;100.00
72157;BME280;60035;52.122;5.406;2024-03-22T03:51:55;101934.88;;;10.32;100.00
72157;BME280;60035;52.122;5.406;2024-03-22T03:54:26;101928.88;;;10.31;100.00
72157;BME280;60035;52.122;5.406;2024-03-22T03:56:58;101919.50;;;10.30;100.00
72157;BME280;60035;52.122;5.406;2024-03-22T03:59:27;101926.38;;;10.28;100.00
72157;BME280;60035;52.122;5.406;2024-03-22T04:01:57;101927.19;;;10.29;100.00
72157;BME280;60035;52.122;5.406;2024-03-22T04:04:30;101934.88;;;10.29;100.00
72157;BME280;60035;52.122;5.406;2024-03-22T04:06:57;101925.56;;;10.22;100.00
72157;BME280;60035;52.122;5.406;2024-03-22T04:09:25;101924.72;;;10.21;100.00
72157;BME280;60035;52.122;5.406;2024-03-22T04:11:55;101917.94;;;10.17;100.00
72157;BME280;60035;52.122;5.406;2024-03-22T04:14:28;101920.50;;;10.15;100.00
72157;BME280;60035;52.122;5.406;2024-03-22T04:16:58;101925.63;;;10.17;100.00
72157;BME280;60035;52.122;5.406;2024-03-22T04:19:26;101929.94;;;10.13;100.00
72157;BME280;60035;52.122;5.406;2024-03-22T04:21:55;101932.50;;;10.13;100.00
72157;BME280;60035;52.122;5.406;2024-03-22T04:24:23;101929.09;;;10.11;100.00
72157;BME280;60035;52.122;5.406;2024-03-22T04:26:54;101927.38;;;10.10;100.00
72157;BME280;60035;52.122;5.406;2024-03-22T04:29:21;101926.56;;;10.08;100.00
72157;BME280;60035;52.122;5.406;2024-03-22T04:31:56;101926.56;;;10.08;100.00
72157;BME280;60035;52.122;5.406;2024-03-22T04:34:27;101918.03;;;10.08;100.00
72157;BME280;60035;52.122;5.406;2024-03-22T04:36:54;101924.00;;;10.07;100.00
72157;BME280;60035;52.122;5.406;2024-03-22T04:39:26;101920.66;;;10.03;100.00
72157;BME280;60035;52.122;5.406;2024-03-22T04:41:56;101924.03;;;10.04;100.00
72157;BME280;60035;52.122;5.406;2024-03-22T04:44:23;101915.56;;;10.02;100.00
72157;BME280;60035;52.122;5.406;2024-03-22T04:46:54;101930.03;;;10.01;100.00
72157;BME280;60035;52.122;5.406;2024-03-22T04:49:25;101929.22;;;9.99;100.00
72157;BME280;60035;52.122;5.406;2024-03-22T04:51:53;101924.09;;;9.99;100.00
72157;BME280;60035;52.122;5.406;2024-03-22T04:54:23;101926.66;;;9.96;100.00
72157;BME280;60035;52.122;5.406;2024-03-22T04:56:55;101928.41;;;9.94;100.00
72157;BME280;60035;52.122;5.406;2024-03-22T04:59:24;101923.28;;;9.95;100.00
72157;BME280;60035;52.122;5.406;2024-03-22T05:01:52;101930.94;;;9.95;100.00
72157;BME280;60035;52.122;5.406;2024-03-22T05:04:22;101921.56;;;9.94;100.00
72157;BME280;60035;52.122;5.406;2024-03-22T05:06:49;101927.56;;;9.95;100.00
72157;BME280;60035;52.122;5.406;2024-03-22T05:09:17;101933.50;;;9.95;100.00
72157;BME280;60035;52.122;5.406;2024-03-22T05:11:49;101927.56;;;9.95;100.00
72157;BME280;60035;52.122;5.406;2024-03-22T05:14:22;101924.13;;;9.94;100.00
72157;BME280;60035;52.122;5.406;2024-03-22T05:16:49;101916.47;;;9.94;100.00
72157;BME280;60035;52.122;5.406;2024-03-22T05:19:19;101910.50;;;9.94;100.00
72157;BME280;60035;52.122;5.406;2024-03-22T05:21:51;101919.88;;;9.95;100.00
72157;BME280;60035;52.122;5.406;2024-03-22T05:24:21;101913.91;;;9.93;100.00
72157;BME280;60035;52.122;5.406;2024-03-22T05:26:48;101922.44;;;9.93;100.00
72157;BME280;60035;52.122;5.406;2024-03-22T05:29:15;101913.91;;;9.94;100.00
72157;BME280;60035;52.122;5.406;2024-03-22T05:31:47;101907.09;;;9.92;100.00
72157;BME280;60035;52.122;5.406;2024-03-22T05:34:18;101901.16;;;9.90;100.00
72157;BME280;60035;52.122;5.406;2024-03-22T05:36:46;101909.69;;;9.89;100.00
72157;BME280;60035;52.122;5.406;2024-03-22T05:39:13;101908.00;;;9.88;100.00
72157;BME280;60035;52.122;5.406;2024-03-22T05:41:41;101898.63;;;9.85;100.00
72157;BME280;60035;52.122;5.406;2024-03-22T05:44:08;101893.50;;;9.87;100.00
72157;BME280;60035;52.122;5.406;2024-03-22T05:46:36;101902.91;;;9.84;100.00
72157;BME280;60035;52.122;5.406;2024-03-22T05:49:05;101889.31;;;9.81;100.00
72157;BME280;60035;52.122;5.406;2024-03-22T05:51:38;101887.56;;;9.81;100.00
72157;BME280;60035;52.122;5.406;2024-03-22T05:54:08;101889.31;;;9.79;100.00
72157;BME280;60035;52.122;5.406;2024-03-22T05:56:35;101888.44;;;9.79;100.00
72157;BME280;60035;52.122;5.406;2024-03-22T05:59:03;101888.44;;;9.79;100.00
72157;BME280;60035;52.122;5.406;2024-03-22T06:01:32;101875.66;;;9.79;100.00
72157;BME280;60035;52.122;5.406;2024-03-22T06:04:00;101879.09;;;9.79;100.00
72157;BME280;60035;52.122;5.406;2024-03-22T06:06:27;101877.38;;;9.80;100.00
72157;BME280;60035;52.122;5.406;2024-03-22T06:08:58;101870.56;;;9.80;100.00
72157;BME280;60035;52.122;5.406;2024-03-22T06:11:38;101877.38;;;9.80;100.00
72157;BME280;60035;52.122;5.406;2024-03-22T06:14:10;101883.34;;;9.80;100.00
72157;BME280;60035;52.122;5.406;2024-03-22T06:16:37;101871.38;;;9.81;100.00
72157;BME280;60035;52.122;5.406;2024-03-22T06:19:05;101868.00;;;9.80;100.00
72157;BME280;60035;52.122;5.406;2024-03-22T06:21:32;101871.38;;;9.81;100.00
72157;BME280;60035;52.122;5.406;2024-03-22T06:24:03;101876.50;;;9.82;100.00
72157;BME280;60035;52.122;5.406;2024-03-22T06:26:32;101869.66;;;9.81;100.00
72157;BME280;60035;52.122;5.406;2024-03-22T06:29:00;101867.09;;;9.84;100.00
72157;BME280;60035;52.122;5.406;2024-03-22T06:31:27;101861.97;;;9.86;100.00
72157;BME280;60035;52.122;5.406;2024-03-22T06:33:56;101873.88;;;9.89;100.00
72157;BME280;60035;52.122;5.406;2024-03-22T06:36:34;101865.34;;;9.90;100.00
72157;BME280;60035;52.122;5.406;2024-03-22T06:39:02;101864.44;;;9.95;100.00
72157;BME280;60035;52.122;5.406;2024-03-22T06:41:35;101863.59;;;9.95;100.00
72157;BME280;60035;52.122;5.406;2024-03-22T06:44:05;101864.38;;;9.98;100.00
72157;BME280;60035;52.122;5.406;2024-03-22T06:46:35;101859.22;;;10.05;100.00
72157;BME280;60035;52.122;5.406;2024-03-22T06:49:07;101862.59;;;10.07;100.00
72157;BME280;60035;52.122;5.406;2024-03-22T06:51:39;101861.72;;;10.11;100.00
72157;BME280;60035;52.122;5.406;2024-03-22T06:54:07;101872.72;;;10.16;100.00
72157;BME280;60035;52.122;5.406;2024-03-22T06:56:38;101864.16;;;10.20;100.00
72157;BME280;60035;52.122;5.406;2024-03-22T06:59:11;101865.78;;;10.27;100.00
72157;BME280;60035;52.122;5.406;2024-03-22T07:01:41;101860.63;;;10.29;100.00
72157;BME280;60035;52.122;5.406;2024-03-22T07:04:10;101865.72;;;10.33;100.00
72157;BME280;60035;52.122;5.406;2024-03-22T07:06:39;101864.84;;;10.38;100.00
72157;BME280;60035;52.122;5.406;2024-03-22T07:09:11;101867.41;;;10.38;100.00
72157;BME280;60035;52.122;5.406;2024-03-22T07:11:41;101856.31;;;10.39;100.00
72157;BME280;60035;52.122;5.406;2024-03-22T07:14:18;101867.34;;;10.41;100.00
72157;BME280;60035;52.122;5.406;2024-03-22T07:16:45;101871.63;;;10.42;100.00
72157;BME280;60035;52.122;5.406;2024-03-22T07:19:19;101861.28;;;10.49;100.00
72157;BME280;60035;52.122;5.406;2024-03-22T07:21:49;101869.78;;;10.52;100.00
72157;BME280;60035;52.122;5.406;2024-03-22T07:24:18;101869.75;;;10.55;100.00
72157;BME280;60035;52.122;5.406;2024-03-22T07:26:45;101865.47;;;10.55;100.00
72157;BME280;60035;52.122;5.406;2024-03-22T07:29:12;101864.63;;;10.55;100.00
72157;BME280;60035;52.122;5.406;2024-03-22T07:31:40;101866.34;;;10.54;100.00
72157;BME280;60035;52.122;5.406;2024-03-22T07:34:07;101868.88;;;10.57;100.00
72157;BME280;60035;52.122;5.406;2024-03-22T07:36:38;101873.13;;;10.60;100.00
72157;BME280;60035;52.122;5.406;2024-03-22T07:39:06;101868.91;;;10.56;100.00
72157;BME280;60035;52.122;5.406;2024-03-22T07:41:34;101869.72;;;10.58;100.00
72157;BME280;60035;52.122;5.406;2024-03-22T07:44:02;101876.59;;;10.56;100.00
72157;BME280;60035;52.122;5.406;2024-03-22T07:46:31;101867.22;;;10.53;100.00
72157;BME280;60035;52.122;5.406;2024-03-22T07:48:58;101870.63;;;10.54;100.00
72157;BME280;60035;52.122;5.406;2024-03-22T07:51:28;101869.78;;;10.52;100.00
72157;BME280;60035;52.122;5.406;2024-03-22T07:53:55;101868.91;;;10.53;100.00
72157;BME280;60035;52.122;5.406;2024-03-22T07:56:25;101866.34;;;10.53;100.00
72157;BME280;60035;52.122;5.406;2024-03-22T07:58:52;101867.19;;;10.55;100.00
72157;BME280;60035;52.122;5.406;2024-03-22T08:01:20;101871.47;;;10.53;100.00
72157;BME280;60035;52.122;5.406;2024-03-22T08:03:51;101868.06;;;10.54;100.00
72157;BME280;60035;52.122;5.406;2024-03-22T08:06:19;101869.75;;;10.55;100.00
72157;BME280;60035;52.122;5.406;2024-03-22T08:08:46;101862.91;;;10.55;100.00
72157;BME280;60035;52.122;5.406;2024-03-22T08:11:13;101862.97;;;10.52;100.00
72157;BME280;60035;52.122;5.406;2024-03-22T08:13:41;101861.28;;;10.49;100.00
72157;BME280;60035;52.122;5.406;2024-03-22T08:16:08;101863.81;;;10.51;100.00
72157;BME280;60035;52.122;5.406;2024-03-22T08:18:37;101867.22;;;10.52;100.00
72157;BME280;60035;52.122;5.406;2024-03-22T08:21:05;101866.44;;;10.45;100.00
72157;BME280;60035;52.122;5.406;2024-03-22T08:23:32;101863.06;;;10.44;100.00
72157;BME280;60035;52.122;5.406;2024-03-22T08:26:00;101854.56;;;10.41;100.00
72157;BME280;60035;52.122;5.406;2024-03-22T08:28:28;101858.00;;;10.38;100.00
72157;BME280;60035;52.122;5.406;2024-03-22T08:30:56;101863.97;;;10.37;100.00
72157;BME280;60035;52.122;5.406;2024-03-22T08:33:23;101865.72;;;10.35;100.00
72157;BME280;60035;52.122;5.406;2024-03-22T08:35:51;101860.59;;;10.37;100.00
72157;BME280;60035;52.122;5.406;2024-03-22T08:38:18;101861.44;;;10.34;100.00
72157;BME280;60035;52.122;5.406;2024-03-22T08:40:45;101858.06;;;10.32;100.00
72157;BME280;60035;52.122;5.406;2024-03-22T08:43:13;101863.16;;;10.30;100.00
72157;BME280;60035;52.122;5.406;2024-03-22T08:45:40;101848.69;;;10.28;100.00
72157;BME280;60035;52.122;5.406;2024-03-22T08:48:07;101851.25;;;10.28;100.00
72157;BME280;60035;52.122;5.406;2024-03-22T08:50:35;101852.97;;;10.27;100.00
72157;BME280;60035;52.122;5.406;2024-03-22T08:53:02;101859.81;;;10.27;100.00
72157;BME280;60035;52.122;5.406;2024-03-22T08:55:30;101849.59;;;10.24;100.00
72157;BME280;60035;52.122;5.406;2024-03-22T08:58:00;101855.56;;;10.26;100.00
72157;BME280;60035;52.122;5.406;2024-03-22T09:00:27;101857.28;;;10.25;100.00
72157;BME280;60035;52.122;5.406;2024-03-22T09:02:55;101849.66;;;10.21;100.00
72157;BME280;60035;52.122;5.406;2024-03-22T09:05:25;101847.94;;;10.20;100.00
72157;BME280;60035;52.122;5.406;2024-03-22T09:07:54;101850.50;;;10.23;100.00
72157;BME280;60035;52.122;5.406;2024-03-22T09:10:23;101848.72;;;10.26;100.00
72157;BME280;60035;52.122;5.406;2024-03-22T09:12:51;101842.75;;;10.27;100.00
72157;BME280;60035;52.122;5.406;2024-03-22T09:15:18;101846.06;;;10.36;100.00
72157;BME280;60035;52.122;5.406;2024-03-22T09:17:45;101853.75;;;10.39;100.00
72157;BME280;60035;52.122;5.406;2024-03-22T09:20:13;101848.63;;;10.36;100.00
72157;BME280;60035;52.122;5.406;2024-03-22T09:22:41;101852.97;;;10.29;100.00
72157;BME280;60035;52.122;5.406;2024-03-22T09:25:08;101847.06;;;10.25;100.00
72157;BME280;60035;52.122;5.406;2024-03-22T09:27:35;101840.22;;;10.24;100.00
72157;BME280;60035;52.122;5.406;2024-03-22T09:30:03;101844.47;;;10.27;100.00
72157;BME280;60035;52.122;5.406;2024-03-22T09:32:30;101842.75;;;10.26;100.00
72157;BME280;60035;52.122;5.406;2024-03-22T09:35:00;101836.72;;;10.31;100.00
72157;BME280;60035;52.122;5.406;2024-03-22T09:37:30;101842.69;;;10.35;100.00
72157;BME280;60035;52.122;5.406;2024-03-22T09:39:58;101842.69;;;10.30;100.00
72157;BME280;60035;52.122;5.406;2024-03-22T09:42:25;101846.97;;;10.30;100.00
72157;BME280;60035;52.122;5.406;2024-03-22T09:44:58;101837.63;;;10.27;100.00
72157;BME280;60035;52.122;5.406;2024-03-22T09:47:27;101840.16;;;10.29;100.00
72157;BME280;60035;52.122;5.406;2024-03-22T09:49:57;101831.69;;;10.25;100.00
72157;BME280;60035;52.122;5.406;2024-03-22T09:52:24;101834.25;;;10.25;100.00
72157;BME280;60035;52.122;5.406;2024-03-22T09:54:54;101841.00;;;10.31;100.00
72157;BME280;60035;52.122;5.406;2024-03-22T09:57:23;101839.22;;;10.39;100.00
72157;BME280;60035;52.122;5.406;2024-03-22T09:59:52;101828.97;;;10.39;100.00
72157;BME280;60035;52.122;5.406;2024-03-22T10:02:21;101834.09;;;10.39;100.00
72157;BME280;60035;52.122;5.406;2024-03-22T10:04:50;101826.47;;;10.36;100.00
72157;BME280;60035;52.122;5.406;2024-03-22T10:07:18;101829.88;;;10.35;100.00
72157;BME280;60035;52.122;5.406;2024-03-22T10:09:45;101824.69;;;10.40;100.00
72157;BME280;60035;52.122;5.406;2024-03-22T10:12:12;101832.38;;;10.40;100.00
72157;BME280;60035;52.122;5.406;2024-03-22T10:14:43;101829.88;;;10.35;100.00
72157;BME280;60035;52.122;5.406;2024-03-22T10:17:11;101827.25;;;10.40;100.00
72157;BME280;60035;52.122;5.406;2024-03-22T10:19:41;101828.94;;;10.44;100.00
72157;BME280;60035;52.122;5.406;2024-03-22T10:22:08;101818.63;;;10.47;100.00
72157;BME280;60035;52.122;5.406;2024-03-22T10:24:36;101819.47;;;10.47;100.00
72157;BME280;60035;52.122;5.406;2024-03-22T10:27:03;101815.94;;;10.56;100.00
72157;BME280;60035;52.122;5.406;2024-03-22T10:29:33;101818.38;;;10.65;100.00
72157;BME280;60035;52.122;5.406;2024-03-22T10:32:01;101816.72;;;10.63;100.00
72157;BME280;60035;52.122;5.406;2024-03-22T10:34:28;101809.84;;;10.66;100.00
72157;BME280;60035;52.122;5.406;2024-03-22T10:36:56;101819.19;;;10.69;100.00
72157;BME280;60035;52.122;5.406;2024-03-22T10:39:26;101821.84;;;10.61;100.00
72157;BME280;60035;52.122;5.406;2024-03-22T10:41:55;101821.00;;;10.61;100.00
72157;BME280;60035;52.122;5.406;2024-03-22T10:44:22;101817.59;;;10.60;100.00
72157;BME280;60035;52.122;5.406;2024-03-22T10:46:50;101817.66;;;10.57;100.00
72157;BME280;60035;52.122;5.406;2024-03-22T10:49:21;101825.31;;;10.59;100.00
72157;BME280;60035;52.122;5.406;2024-03-22T10:51:49;101821.84;;;10.63;100.00
72157;BME280;60035;52.122;5.406;2024-03-22T10:54:27;101822.66;;;10.66;100.00
72157;BME280;60035;52.122;5.406;2024-03-22T10:56:58;101820.16;;;10.60;100.00
72157;BME280;60035;52.122;5.406;2024-03-22T10:59:25;101824.44;;;10.60;100.00
72157;BME280;60035;52.122;5.406;2024-03-22T11:02:05;101826.16;;;10.59;100.00
72157;BME280;60035;52.122;5.406;2024-03-22T11:04:37;101822.66;;;10.63;100.00
72157;BME280;60035;52.122;5.406;2024-03-22T11:07:05;101808.13;;;10.67;100.00
72157;BME280;60035;52.122;5.406;2024-03-22T11:09:32;101814.00;;;10.74;100.00
72157;BME280;60035;52.122;5.406;2024-03-22T11:11:59;101814.66;;;10.87;100.00
72157;BME280;60035;52.122;5.406;2024-03-22T11:14:27;101807.03;;;10.83;100.00
72157;BME280;60035;52.122;5.406;2024-03-22T11:16:55;101810.41;;;10.86;100.00
72157;BME280;60035;52.122;5.406;2024-03-22T11:19:23;101807.78;;;10.89;100.00
72157;BME280;60035;52.122;5.406;2024-03-22T11:21:56;101801.91;;;10.82;100.00
72157;BME280;60035;52.122;5.406;2024-03-22T11:24:28;101806.25;;;10.78;100.00
72157;BME280;60035;52.122;5.406;2024-03-22T11:26:55;101799.25;;;10.88;100.00
72157;BME280;60035;52.122;5.406;2024-03-22T11:29:29;101797.53;;;10.89;100.00
72157;BME280;60035;52.122;5.406;2024-03-22T11:32:02;101794.88;;;10.95;100.00
72157;BME280;60035;52.122;5.406;2024-03-22T11:34:29;101787.84;;;11.08;100.00
72157;BME280;60035;52.122;5.406;2024-03-22T11:36:56;101779.91;;;11.22;100.00
72157;BME280;60035;52.122;5.406;2024-03-22T11:39:26;101782.38;;;11.28;100.00
72157;BME280;60035;52.122;5.406;2024-03-22T11:41:56;101785.75;;;11.31;100.00
72157;BME280;60035;52.122;5.406;2024-03-22T11:44:27;101782.47;;;11.22;100.00
72157;BME280;60035;52.122;5.406;2024-03-22T11:46:58;101771.47;;;11.18;100.00
72157;BME280;60035;52.122;5.406;2024-03-22T11:49:28;101771.56;;;11.12;100.00
72157;BME280;60035;52.122;5.406;2024-03-22T11:52:01;101777.34;;;11.22;100.00
72157;BME280;60035;52.122;5.406;2024-03-22T11:54:30;101773.75;;;11.32;100.00
72157;BME280;60035;52.122;5.406;2024-03-22T11:57:03;101775.44;;;11.34;100.00
72157;BME280;60035;52.122;5.406;2024-03-22T11:59:30;101772.19;;;11.25;100.00
72157;BME280;60035;52.122;5.406;2024-03-22T12:02:00;101769.91;;;11.08;100.00
72157;BME280;60035;52.122;5.406;2024-03-22T12:04:28;101769.94;;;11.06;100.00
72157;BME280;60035;52.122;5.406;2024-03-22T12:06:58;101769.97;;;11.03;100.00
72157;BME280;60035;52.122;5.406;2024-03-22T12:09:26;101767.44;;;11.02;100.00
72157;BME280;60035;52.122;5.406;2024-03-22T12:11:56;101758.03;;;11.04;100.00
72157;BME280;60035;52.122;5.406;2024-03-22T12:14:26;101762.34;;;11.00;100.00
72157;BME280;60035;52.122;5.406;2024-03-22T12:16:53;101760.63;;;11.00;100.00
72157;BME280;60035;52.122;5.406;2024-03-22T12:19:21;101760.66;;;10.99;100.00
72157;BME280;60035;52.122;5.406;2024-03-22T12:21:48;101764.97;;;10.97;100.00
72157;BME280;60035;52.122;5.406;2024-03-22T12:24:18;101759.06;;;10.92;100.00
72157;BME280;60035;52.122;5.406;2024-03-22T12:26:47;101758.22;;;10.90;100.00
72157;BME280;60035;52.122;5.406;2024-03-22T12:29:25;101759.22;;;10.82;100.00
72157;BME280;60035;52.122;5.406;2024-03-22T12:31:53;101759.22;;;10.82;100.00
72157;BME280;60035;52.122;5.406;2024-03-22T12:34:20;101756.53;;;10.89;100.00
72157;BME280;60035;52.122;5.406;2024-03-22T12:36:47;101755.72;;;10.87;100.00
72157;BME280;60035;52.122;5.406;2024-03-22T12:39:15;101748.94;;;10.84;100.00
72157;BME280;60035;52.122;5.406;2024-03-22T12:41:43;101751.66;;;10.75;100.00
72157;BME280;60035;52.122;5.406;2024-03-22T12:44:10;101741.31;;;10.79;100.00
72157;BME280;60035;52.122;5.406;2024-03-22T12:46:37;101748.03;;;10.87;100.00
72157;BME280;60035;52.122;5.406;2024-03-22T12:49:05;101746.41;;;10.82;100.00